DSNT2: Lake Texoma, Denison Dam

Data processed at Mon Nov 30 2020 23:55


All information presented herein is the property of the government of the United States of America and may be revised or deleted at any time without prior notice.
Dissemination of this information without the expressed written consent of the Public Affairs Office, Tulsa District U.S. Army Corps of Engineers is strictly prohibited.
These data are gathered electronically and, as presented, have not undergone any form of quality control. These data are not guaranteed to be valid or correct.
Go to home page.
Go to station list.
Go to home page.

Upstream stations:

Downstream station:
Previous Day
Next Day
Current Day
    
SHEF ID:       DSNT2     Lake Texoma
STATION TYPE:  Reservoir
Flood Pool:  Bottom =   618.50, Top =   640.00

               PRECIP PRECIP(A) ELEVATION   STORAGE   TW-ELEV    INFLOW   RELEASE  AIR-TEMP  WIND-DIRWIND-SPEED REL-HUMID SOLAR-RAD   VOLTAGE  BAT-LOAD
                   in        in        ft     ac-ft        ft       cfs       cfs         F       deg       mph         %      W/m2      volt      volt
              Ccp-Rev   Ccp-Rev   Ccp-Rev   Ccp-Rev   Ccp-Rev  Rev-Regi  Rev-Regi   Ccp-Rev   Ccp-Rev   Ccp-Rev   Ccp-Rev   Ccp-Rev   Ccp-Rev   Ccp-Rev
(US/Central)
11/30 00:00      0.00      ----    615.70   2391623    501.20      2342        19     43.30    355.80     30.10     58.80      0.00     12.86     12.56
11/30 01:00      0.00      ----    615.70   2391623    501.20      2342        19     41.52      4.40     25.50     56.40      0.00     12.84     12.53
11/30 02:00      0.00      ----    615.70   2391623    501.20      2342        19     40.55    352.40     25.80     57.68      0.00     12.82     12.51
11/30 03:00      0.00      ----    615.70   2391623    501.20      1177        19     39.42    351.60     26.60     58.62      0.00     12.80     12.50
11/30 04:00      0.00      ----    615.71   2392340    501.20      1175        19     38.23    349.90     27.20     59.00      0.00     12.79     12.48
11/30 05:00      0.00      ----    615.71   2392340    501.20      1175        19     37.40    350.20     25.80     61.12      0.00     12.77     12.46
11/30 06:00      0.00      ----    615.70   2391623    501.20      1175        19     36.23    347.40     22.00     61.72      0.00     12.75     12.44
11/30 07:00      0.00      ----    615.70   2391623    501.21        10        19     35.35    343.80     19.00     63.61      0.00     12.72     12.42
11/30 08:00      0.00      ----    615.70   2391623    501.21        10        19     34.30    335.60     17.50     65.58     35.10     13.19     12.40
11/30 09:00      0.00      ----    615.70   2391623    501.21        13        19     34.09    335.70     16.40     64.36    241.90     13.57     13.03
11/30 10:00      0.00      ----    615.70   2391623    501.20        13        19     34.81    333.20     13.80     59.38    437.40     13.55     13.28
11/30 11:00      0.00      ----    615.70   2391623    501.19        13        19     36.59    327.30     14.30     54.79    589.00     13.74     13.29
11/30 12:00      0.00      ----    615.70   2391623    501.22        10        19     39.38    314.10     15.20     48.11    676.20     13.60     13.30
11/30 13:00      0.00      ----    615.70   2391623    501.19         8        19     41.83    303.50     16.80     43.68    695.30     13.60     13.29
11/30 14:00      0.00      ----    615.70   2391623    501.19         5        19     44.76    295.00     13.70     37.76    569.60     13.84     13.36
11/30 15:00      0.00      ----    615.70   2391623    501.18         3        19     46.67    298.30     11.10     33.35    517.20     13.55     13.26
11/30 16:00      0.00      ----    615.70   2391623    501.19         0        19     48.29    293.30     10.10     28.93    351.20     14.33     13.18
11/30 17:00      0.00      ----    615.70   2391623    501.18         0        19     49.01    274.90     11.20     31.34    125.70     13.36     13.16
11/30 18:00      0.00      ----    615.70   2391623    501.19         0        19     46.72    264.60      8.80     38.34      1.40     13.06     13.00
11/30 19:00      0.00      ----    615.70   2391623    501.20         0        19     44.11    258.80     10.60     41.93      0.00     12.96     12.73
11/30 20:00      0.00      ----    615.70   2391623    501.21         0        19     42.78    256.90     11.10     45.00      0.00     12.92     12.63
11/30 21:00      0.00      ----    615.70   2391623    501.21         0        19     39.45    241.50      7.90     46.13      0.00     12.90     12.59
11/30 22:00      0.00      ----    615.69   2390906    501.22         0        19     39.02    201.20      4.10     51.30      0.00     12.89     12.57
11/30 23:00      0.00      ----    615.69   2390906    501.22         0        19     38.35    218.20      4.80     45.92      0.00     12.87     12.54